PWSweather.com
Personal Weather Stations
Station Observations
LANJARON
Lanjaron, GranadaES 18420

LanjaronGranadaES 18420

Lat: 36.919, Lon: -3.469

Elevation: 2130

Station Type: Weatherflow Sky/Air

https://www.spanishhighs.co.uk/meteotemplate/

Latest ConditionsUpdated 10:50:00 PM GMT+01:01 Saturday, Aug 24, 2019
Currently Today's Max Today's Min Today's Average
Temperature 68.4°F20.2°C 84.8°F29.3°C 63.3°F17.4°C 72.2°F22.3°C
Dew Point 61.2°F16.2°C 65.0°F18.3°C 50.5°F10.3°C 59.0°F15.0°C
Winds 0.2 mph WSW0.3 kmh WSW 5.1 mph -8.2 kmh - - 1.6 mph 2.6 kmh
Wind Gusts 1.0 mph1.6 kmh 14.4 mph23.2 kmh - -
Humidity 78% 87% 50% 64%
Pressure 30.20 in1022.7 mb 30.22 in1023.4 mb 29.93 in1013.5 mb -
Hour Temp Dew Point Humidity Winds Wind Gusts Pressure Precip Precip Rate Daily Precip Total
10:50 PM 68.4°F20.2°C 61.2°F16.2°C 78% 0.2 mph WSW0.3 kmh WSW 1.0 mph1.6 kmh 30.20 in1022.7 mb 0.00 in0.0 mm 0.00 in0.0 mm 0.00 in0.0 mm
10:45 PM 68.5°F20.3°C 61.4°F16.3°C 78% 0.2 mph W0.3 kmh W 1.4 mph2.3 kmh 30.20 in1022.7 mb 0.00 in0.0 mm 0.00 in0.0 mm 0.00 in0.0 mm
10:40 PM 68.7°F20.4°C 61.6°F16.4°C 78% 0.3 mph WSW0.5 kmh WSW 1.4 mph2.3 kmh 30.20 in1022.7 mb 0.00 in0.0 mm 0.00 in0.0 mm 0.00 in0.0 mm
10:35 PM 68.9°F20.5°C 61.8°F16.6°C 78% 0.5 mph SSW0.8 kmh SSW 2.2 mph3.5 kmh 30.20 in1022.7 mb 0.00 in0.0 mm 0.00 in0.0 mm 0.00 in0.0 mm
10:30 PM 68.8°F20.4°C 61.7°F16.5°C 78% 0.5 mph SW0.8 kmh SW 1.7 mph2.7 kmh 30.20 in1022.7 mb 0.00 in0.0 mm 0.00 in0.0 mm 0.00 in0.0 mm
10:25 PM 68.8°F20.4°C 61.7°F16.5°C 78% 0.3 mph WSW0.5 kmh WSW 1.5 mph2.4 kmh 30.20 in1022.7 mb 0.00 in0.0 mm 0.00 in0.0 mm 0.00 in0.0 mm
10:20 PM 69.0°F20.6°C 61.8°F16.6°C 78% 0.1 mph W0.2 kmh W 1.1 mph1.8 kmh 30.20 in1022.7 mb 0.00 in0.0 mm 0.00 in0.0 mm 0.00 in0.0 mm
10:15 PM 69.0°F20.6°C 61.8°F16.6°C 78% 0.2 mph W0.3 kmh W 1.7 mph2.7 kmh 30.20 in1022.7 mb 0.00 in0.0 mm 0.00 in0.0 mm 0.00 in0.0 mm
10:10 PM 69.0°F20.6°C 61.5°F16.4°C 77% 0.2 mph W0.3 kmh W 1.4 mph2.3 kmh 30.20 in1022.7 mb 0.00 in0.0 mm 0.00 in0.0 mm 0.00 in0.0 mm
10:05 PM 69.2°F20.7°C 61.7°F16.5°C 77% 0.2 mph W0.3 kmh W 1.5 mph2.4 kmh 30.19 in1022.4 mb 0.00 in0.0 mm 0.00 in0.0 mm 0.00 in0.0 mm
10:00 PM 69.3°F20.7°C 61.8°F16.6°C 77% 0.3 mph W0.5 kmh W 1.7 mph2.7 kmh 30.19 in1022.4 mb 0.00 in0.0 mm 0.00 in0.0 mm 0.00 in0.0 mm
09:55 PM 69.3°F20.7°C 61.8°F16.6°C 77% 0.2 mph W0.3 kmh W 1.2 mph1.9 kmh 30.19 in1022.4 mb 0.00 in0.0 mm 0.00 in0.0 mm 0.00 in0.0 mm
09:50 PM 69.5°F20.8°C 62.0°F16.7°C 77% 0.2 mph W0.3 kmh W 1.1 mph1.8 kmh 30.19 in1022.4 mb 0.00 in0.0 mm 0.00 in0.0 mm 0.00 in0.0 mm
09:45 PM 69.6°F20.9°C 62.1°F16.7°C 77% 0.3 mph W0.5 kmh W 1.1 mph1.8 kmh 30.19 in1022.4 mb 0.00 in0.0 mm 0.00 in0.0 mm 0.00 in0.0 mm
09:40 PM 69.6°F20.9°C 62.1°F16.7°C 77% 0.2 mph W0.3 kmh W 1.2 mph1.9 kmh 30.18 in1022.0 mb 0.00 in0.0 mm 0.00 in0.0 mm 0.00 in0.0 mm
09:35 PM 69.7°F20.9°C 62.1°F16.7°C 77% Calm Calm -- 30.18 in1022.0 mb 0.00 in0.0 mm 0.00 in0.0 mm 0.00 in0.0 mm
09:30 PM 69.8°F21.0°C 62.3°F16.8°C 77% 0.5 mph WSW0.8 kmh WSW 1.3 mph2.1 kmh 30.18 in1022.0 mb 0.00 in0.0 mm 0.00 in0.0 mm 0.00 in0.0 mm
09:25 PM 69.7°F20.9°C 62.2°F16.8°C 77% 0.7 mph WSW1.1 kmh WSW 1.9 mph3.1 kmh 30.17 in1021.7 mb 0.00 in0.0 mm 0.00 in0.0 mm 0.00 in0.0 mm
09:20 PM 69.6°F20.9°C 62.1°F16.7°C 77% 0.2 mph W0.3 kmh W 1.5 mph2.4 kmh 30.17 in1021.7 mb 0.00 in0.0 mm 0.00 in0.0 mm 0.00 in0.0 mm
09:15 PM 69.8°F21.0°C 62.2°F16.8°C 77% Calm Calm 1.1 mph1.8 kmh 30.17 in1021.7 mb 0.00 in0.0 mm 0.00 in0.0 mm 0.00 in0.0 mm
09:10 PM 70.0°F21.1°C 62.0°F16.7°C 76% 0.1 mph WSW0.2 kmh WSW 1.4 mph2.3 kmh 30.17 in1021.7 mb 0.00 in0.0 mm 0.00 in0.0 mm 0.00 in0.0 mm
09:05 PM 70.3°F21.3°C 62.4°F16.9°C 76% Calm Calm 0.9 mph1.4 kmh 30.16 in1021.3 mb 0.00 in0.0 mm 0.00 in0.0 mm 0.00 in0.0 mm
09:00 PM 70.5°F21.4°C 62.5°F16.9°C 76% 0.1 mph W0.2 kmh W 1.4 mph2.3 kmh 30.16 in1021.3 mb 0.00 in0.0 mm 0.00 in0.0 mm 0.00 in0.0 mm
08:55 PM 70.6°F21.4°C 62.6°F17.0°C 76% 0.3 mph W0.5 kmh W 1.5 mph2.4 kmh 30.16 in1021.3 mb 0.00 in0.0 mm 0.00 in0.0 mm 0.00 in0.0 mm
08:50 PM 70.6°F21.4°C 62.6°F17.0°C 76% 0.4 mph W0.6 kmh W 1.4 mph2.3 kmh 30.15 in1021.0 mb 0.00 in0.0 mm 0.00 in0.0 mm 0.00 in0.0 mm
08:45 PM 70.6°F21.4°C 62.7°F17.1°C 76% 0.1 mph WNW0.2 kmh WNW 1.1 mph1.8 kmh 30.15 in1021.0 mb 0.00 in0.0 mm 0.00 in0.0 mm 0.00 in0.0 mm
08:40 PM 70.9°F21.6°C 62.2°F16.8°C 74% Calm Calm -- 30.15 in1021.0 mb 0.00 in0.0 mm 0.00 in0.0 mm 0.00 in0.0 mm
08:35 PM 71.1°F21.7°C 62.4°F16.9°C 74% Calm Calm 0.8 mph1.3 kmh 30.15 in1021.0 mb 0.00 in0.0 mm 0.00 in0.0 mm 0.00 in0.0 mm
08:30 PM 71.4°F21.9°C 62.3°F16.8°C 73% 0.2 mph W0.3 kmh W 1.1 mph1.8 kmh 30.15 in1021.0 mb 0.00 in0.0 mm 0.00 in0.0 mm 0.00 in0.0 mm
08:25 PM 71.8°F22.1°C 62.7°F17.1°C 73% Calm Calm -- 30.14 in1020.7 mb 0.00 in0.0 mm 0.00 in0.0 mm 0.00 in0.0 mm
08:20 PM 72.0°F22.2°C 62.8°F17.1°C 73% 0.5 mph S0.8 kmh S 2.0 mph3.2 kmh 30.14 in1020.7 mb 0.00 in0.0 mm 0.00 in0.0 mm 0.00 in0.0 mm
08:15 PM 71.9°F22.2°C 62.7°F17.1°C 73% 0.2 mph SW0.3 kmh SW 2.0 mph3.2 kmh 30.14 in1020.7 mb 0.00 in0.0 mm 0.00 in0.0 mm 0.00 in0.0 mm
08:10 PM 72.1°F22.3°C 63.0°F17.2°C 73% 0.6 mph NW1.0 kmh NW 2.3 mph3.7 kmh 30.14 in1020.7 mb 0.00 in0.0 mm 0.00 in0.0 mm 0.00 in0.0 mm
08:05 PM 72.9°F22.7°C 63.1°F17.3°C 72% 1.6 mph NNW2.6 kmh NNW 5.1 mph8.2 kmh 30.13 in1020.3 mb 0.00 in0.0 mm 0.00 in0.0 mm 0.00 in0.0 mm
08:00 PM 73.7°F23.2°C 62.8°F17.1°C 69% 0.2 mph NE0.3 kmh NE 1.2 mph1.9 kmh 30.12 in1020.0 mb 0.00 in0.0 mm 0.00 in0.0 mm 0.00 in0.0 mm
07:55 PM 74.0°F23.3°C 63.2°F17.3°C 69% 0.2 mph SE0.3 kmh SE 1.9 mph3.1 kmh 30.12 in1020.0 mb 0.00 in0.0 mm 0.00 in0.0 mm 0.00 in0.0 mm
07:50 PM 74.2°F23.4°C 63.1°F17.3°C 68% 0.7 mph E1.1 kmh E 2.5 mph4.0 kmh 30.12 in1020.0 mb 0.00 in0.0 mm 0.00 in0.0 mm 0.00 in0.0 mm
07:45 PM 74.4°F23.6°C 63.1°F17.3°C 68% 0.6 mph ESE1.0 kmh ESE 2.7 mph4.3 kmh 30.12 in1020.0 mb 0.00 in0.0 mm 0.00 in0.0 mm 0.00 in0.0 mm
07:40 PM 74.8°F23.8°C 63.2°F17.3°C 67% 0.2 mph NNW0.3 kmh NNW 1.5 mph2.4 kmh 30.12 in1020.0 mb 0.00 in0.0 mm 0.00 in0.0 mm 0.00 in0.0 mm
07:35 PM 75.1°F23.9°C 63.4°F17.4°C 67% 0.5 mph E0.8 kmh E 2.0 mph3.2 kmh 30.11 in1019.6 mb 0.00 in0.0 mm 0.00 in0.0 mm 0.00 in0.0 mm
07:30 PM 75.4°F24.1°C 63.4°F17.4°C 66% 0.4 mph NNE0.6 kmh NNE 2.7 mph4.3 kmh 30.11 in1019.6 mb 0.00 in0.0 mm 0.00 in0.0 mm 0.00 in0.0 mm
07:25 PM 75.7°F24.3°C 63.6°F17.6°C 66% 1.1 mph SE1.8 kmh SE 4.9 mph7.9 kmh 30.11 in1019.6 mb 0.00 in0.0 mm 0.00 in0.0 mm 0.00 in0.0 mm
07:20 PM 76.1°F24.5°C 63.5°F17.5°C 65% 1.0 mph S1.6 kmh S 3.9 mph6.3 kmh 30.11 in1019.6 mb 0.00 in0.0 mm 0.00 in0.0 mm 0.00 in0.0 mm
07:15 PM 76.5°F24.7°C 63.5°F17.5°C 64% 0.8 mph W1.3 kmh W 3.9 mph6.3 kmh 30.10 in1019.3 mb 0.00 in0.0 mm 0.00 in0.0 mm 0.00 in0.0 mm
07:10 PM 77.4°F25.2°C 63.4°F17.4°C 62% 1.3 mph NNW2.1 kmh NNW 5.2 mph8.4 kmh 30.10 in1019.3 mb 0.00 in0.0 mm 0.00 in0.0 mm 0.00 in0.0 mm
07:05 PM 77.9°F25.5°C 63.6°F17.6°C 61% 1.3 mph NE2.1 kmh NE 4.5 mph7.2 kmh 30.10 in1019.3 mb 0.00 in0.0 mm 0.00 in0.0 mm 0.00 in0.0 mm
07:00 PM 78.3°F25.7°C 63.7°F17.6°C 61% 1.0 mph SE1.6 kmh SE 4.1 mph6.6 kmh 30.10 in1019.3 mb 0.00 in0.0 mm 0.00 in0.0 mm 0.00 in0.0 mm
06:55 PM 78.3°F25.7°C 63.8°F17.7°C 61% 0.9 mph SSW1.4 kmh SSW 3.3 mph5.3 kmh 30.10 in1019.3 mb 0.00 in0.0 mm 0.00 in0.0 mm 0.00 in0.0 mm
06:50 PM 78.4°F25.8°C 63.8°F17.7°C 61% 0.8 mph ENE1.3 kmh ENE 3.4 mph5.5 kmh 30.10 in1019.3 mb 0.00 in0.0 mm 0.00 in0.0 mm 0.00 in0.0 mm
06:45 PM 78.5°F25.8°C 63.5°F17.5°C 60% 1.8 mph E2.9 kmh E 6.6 mph10.6 kmh 30.10 in1019.3 mb 0.00 in0.0 mm 0.00 in0.0 mm 0.00 in0.0 mm
06:40 PM 79.4°F26.3°C 63.9°F17.7°C 59% 1.4 mph E2.3 kmh E 3.8 mph6.1 kmh 30.09 in1019.0 mb 0.00 in0.0 mm 0.00 in0.0 mm 0.00 in0.0 mm
06:35 PM 80.1°F26.7°C 63.7°F17.6°C 57% 2.1 mph ESE3.4 kmh ESE 5.3 mph8.5 kmh 30.09 in1019.0 mb 0.00 in0.0 mm 0.00 in0.0 mm 0.00 in0.0 mm
06:30 PM 81.1°F27.3°C 63.9°F17.7°C 56% 3.1 mph ESE5.0 kmh ESE 6.4 mph10.3 kmh 30.09 in1019.0 mb 0.00 in0.0 mm 0.00 in0.0 mm 0.00 in0.0 mm
06:25 PM 81.9°F27.7°C 64.4°F18.0°C 55% 3.6 mph SE5.8 kmh SE 10.2 mph16.4 kmh 30.08 in1018.6 mb 0.00 in0.0 mm 0.00 in0.0 mm 0.00 in0.0 mm
06:20 PM 82.2°F27.9°C 64.4°F18.0°C 55% 2.3 mph ESE3.7 kmh ESE 8.5 mph13.7 kmh 30.08 in1018.6 mb 0.00 in0.0 mm 0.00 in0.0 mm 0.00 in0.0 mm
06:15 PM 82.5°F28.1°C 64.6°F18.1°C 55% 2.2 mph E3.5 kmh E 6.3 mph10.1 kmh 30.08 in1018.6 mb 0.00 in0.0 mm 0.00 in0.0 mm 0.00 in0.0 mm
06:10 PM 83.0°F28.3°C 64.5°F18.1°C 54% 2.3 mph E3.7 kmh E 6.0 mph9.7 kmh 30.08 in1018.6 mb 0.00 in0.0 mm 0.00 in0.0 mm 0.00 in0.0 mm
06:05 PM 83.6°F28.7°C 64.6°F18.1°C 53% 1.9 mph E3.1 kmh E 4.7 mph7.6 kmh 30.08 in1018.6 mb 0.00 in0.0 mm 0.00 in0.0 mm 0.00 in0.0 mm
06:00 PM 83.9°F28.8°C 64.9°F18.3°C 53% 2.4 mph E3.9 kmh E 6.0 mph9.7 kmh 30.07 in1018.3 mb 0.00 in0.0 mm 0.00 in0.0 mm 0.00 in0.0 mm
05:55 PM 84.0°F28.9°C 65.0°F18.3°C 53% 3.3 mph ESE5.3 kmh ESE 9.2 mph14.8 kmh 30.07 in1018.3 mb 0.00 in0.0 mm 0.00 in0.0 mm 0.00 in0.0 mm
05:50 PM 84.0°F28.9°C 65.0°F18.3°C 53% 3.0 mph ESE4.8 kmh ESE 8.0 mph12.9 kmh 30.07 in1018.3 mb 0.00 in0.0 mm 0.00 in0.0 mm 0.00 in0.0 mm
05:45 PM 83.6°F28.7°C 64.7°F18.2°C 53% 3.2 mph E5.1 kmh E 8.9 mph14.3 kmh 30.07 in1018.3 mb 0.00 in0.0 mm 0.00 in0.0 mm 0.00 in0.0 mm
05:40 PM 83.7°F28.7°C 64.7°F18.2°C 53% 1.9 mph E3.1 kmh E 6.5 mph10.5 kmh 30.07 in1018.3 mb 0.00 in0.0 mm 0.00 in0.0 mm 0.00 in0.0 mm
05:35 PM 83.8°F28.8°C 64.8°F18.2°C 53% 2.7 mph E4.3 kmh E 8.0 mph12.9 kmh 30.07 in1018.3 mb 0.00 in0.0 mm 0.00 in0.0 mm 0.00 in0.0 mm
05:30 PM 83.8°F28.8°C 64.8°F18.2°C 53% 2.6 mph E4.2 kmh E 7.1 mph11.4 kmh 30.07 in1018.3 mb 0.00 in0.0 mm 0.00 in0.0 mm 0.00 in0.0 mm
05:25 PM 83.4°F28.6°C 64.5°F18.1°C 53% 3.1 mph E5.0 kmh E 11.7 mph18.8 kmh 30.08 in1018.6 mb 0.00 in0.0 mm 0.00 in0.0 mm 0.00 in0.0 mm
05:20 PM 83.3°F28.5°C 64.4°F18.0°C 53% 3.2 mph E5.1 kmh E 9.2 mph14.8 kmh 30.08 in1018.6 mb 0.00 in0.0 mm 0.00 in0.0 mm 0.00 in0.0 mm
05:15 PM 83.2°F28.4°C 64.9°F18.3°C 54% 2.5 mph E4.0 kmh E 7.2 mph11.6 kmh 30.08 in1018.6 mb 0.00 in0.0 mm 0.00 in0.0 mm 0.00 in0.0 mm
05:10 PM 82.6°F28.1°C 64.5°F18.1°C 54% 3.0 mph E4.8 kmh E 8.3 mph13.4 kmh 30.08 in1018.6 mb 0.00 in0.0 mm 0.00 in0.0 mm 0.00 in0.0 mm
05:05 PM 83.2°F28.4°C 64.3°F17.9°C 53% 2.6 mph ESE4.2 kmh ESE 7.3 mph11.7 kmh 30.08 in1018.6 mb 0.00 in0.0 mm 0.00 in0.0 mm 0.00 in0.0 mm
05:00 PM 83.6°F28.7°C 64.6°F18.1°C 53% 4.2 mph E6.8 kmh E 9.5 mph15.3 kmh 30.08 in1018.6 mb 0.00 in0.0 mm 0.00 in0.0 mm 0.00 in0.0 mm
04:55 PM 83.1°F28.4°C 64.2°F17.9°C 53% 3.0 mph ESE4.8 kmh ESE 7.6 mph12.2 kmh 30.08 in1018.6 mb 0.00 in0.0 mm 0.00 in0.0 mm 0.00 in0.0 mm
04:50 PM 82.9°F28.3°C 64.0°F17.8°C 53% 3.6 mph E5.8 kmh E 10.1 mph16.3 kmh 30.08 in1018.6 mb 0.00 in0.0 mm 0.00 in0.0 mm 0.00 in0.0 mm
04:45 PM 83.0°F28.3°C 64.1°F17.8°C 53% 4.6 mph ESE7.4 kmh ESE 10.4 mph16.7 kmh 30.09 in1019.0 mb 0.00 in0.0 mm 0.00 in0.0 mm 0.00 in0.0 mm
04:40 PM 83.0°F28.3°C 64.0°F17.8°C 53% 3.9 mph ESE6.3 kmh ESE 11.5 mph18.5 kmh 30.08 in1018.6 mb 0.00 in0.0 mm 0.00 in0.0 mm 0.00 in0.0 mm
04:35 PM 82.6°F28.1°C 63.9°F17.7°C 53% 3.8 mph ESE6.1 kmh ESE 7.3 mph11.7 kmh 30.09 in1019.0 mb 0.00 in0.0 mm 0.00 in0.0 mm 0.00 in0.0 mm
04:30 PM 83.1°F28.4°C 64.2°F17.9°C 53% 3.9 mph E6.3 kmh E 13.1 mph21.1 kmh 30.09 in1019.0 mb 0.00 in0.0 mm 0.00 in0.0 mm 0.00 in0.0 mm
04:25 PM 83.7°F28.7°C 64.6°F18.1°C 53% 4.2 mph E6.8 kmh E 9.3 mph15.0 kmh 30.08 in1018.6 mb 0.00 in0.0 mm 0.00 in0.0 mm 0.00 in0.0 mm
04:20 PM 84.1°F28.9°C 64.7°F18.2°C 52% 4.6 mph E7.4 kmh E 13.9 mph22.4 kmh 30.08 in1018.6 mb 0.00 in0.0 mm 0.00 in0.0 mm 0.00 in0.0 mm
04:15 PM 84.1°F28.9°C 64.8°F18.2°C 52% 4.4 mph E7.1 kmh E 12.2 mph19.6 kmh 30.08 in1018.6 mb 0.00 in0.0 mm 0.00 in0.0 mm 0.00 in0.0 mm
04:10 PM 84.0°F28.9°C 64.5°F18.1°C 52% 4.2 mph ESE6.8 kmh ESE 11.1 mph17.9 kmh 30.08 in1018.6 mb 0.00 in0.0 mm 0.00 in0.0 mm 0.00 in0.0 mm
04:05 PM 83.8°F28.8°C 64.5°F18.1°C 52% 4.3 mph E6.9 kmh E 10.4 mph16.7 kmh 30.08 in1018.6 mb 0.00 in0.0 mm 0.00 in0.0 mm 0.00 in0.0 mm
04:00 PM 83.9°F28.8°C 64.3°F17.9°C 52% 4.3 mph ESE6.9 kmh ESE 9.2 mph14.8 kmh 30.09 in1019.0 mb 0.00 in0.0 mm 0.00 in0.0 mm 0.00 in0.0 mm
03:55 PM 84.2°F29.0°C 64.5°F18.1°C 52% 4.4 mph ESE7.1 kmh ESE 11.0 mph17.7 kmh 30.08 in1018.6 mb 0.00 in0.0 mm 0.00 in0.0 mm 0.00 in0.0 mm
03:50 PM 84.4°F29.1°C 64.7°F18.2°C 52% 5.0 mph E8.0 kmh E 13.3 mph21.4 kmh 30.08 in1018.6 mb 0.00 in0.0 mm 0.00 in0.0 mm 0.00 in0.0 mm
03:45 PM 84.4°F29.1°C 64.3°F17.9°C 51% 3.4 mph E5.5 kmh E 11.0 mph17.7 kmh 30.08 in1018.6 mb 0.00 in0.0 mm 0.00 in0.0 mm 0.00 in0.0 mm
03:40 PM 84.8°F29.3°C 64.2°F17.9°C 50% 3.9 mph E6.3 kmh E 12.4 mph20.0 kmh 30.08 in1018.6 mb 0.00 in0.0 mm 0.00 in0.0 mm 0.00 in0.0 mm
03:35 PM 84.6°F29.2°C 64.5°F18.1°C 51% 3.0 mph SE4.8 kmh SE 8.2 mph13.2 kmh 30.08 in1018.6 mb 0.00 in0.0 mm 0.00 in0.0 mm 0.00 in0.0 mm
03:30 PM 84.3°F29.1°C 64.6°F18.1°C 52% 3.8 mph E6.1 kmh E 9.0 mph14.5 kmh 30.08 in1018.6 mb 0.00 in0.0 mm 0.00 in0.0 mm 0.00 in0.0 mm
03:25 PM 83.6°F28.7°C 64.3°F17.9°C 52% 3.6 mph E5.8 kmh E 12.5 mph20.1 kmh 30.09 in1019.0 mb 0.00 in0.0 mm 0.00 in0.0 mm 0.00 in0.0 mm
03:20 PM 83.3°F28.5°C 63.7°F17.6°C 52% 3.1 mph E5.0 kmh E 11.3 mph18.2 kmh 30.09 in1019.0 mb 0.00 in0.0 mm 0.00 in0.0 mm 0.00 in0.0 mm
03:15 PM 83.7°F28.7°C 64.1°F17.8°C 52% 4.0 mph E6.4 kmh E 11.2 mph18.0 kmh 30.09 in1019.0 mb 0.00 in0.0 mm 0.00 in0.0 mm 0.00 in0.0 mm
03:10 PM 82.9°F28.3°C 63.6°F17.6°C 52% 3.5 mph ESE5.6 kmh ESE 9.2 mph14.8 kmh 30.09 in1019.0 mb 0.00 in0.0 mm 0.00 in0.0 mm 0.00 in0.0 mm
03:05 PM 83.1°F28.4°C 63.2°F17.3°C 51% 2.7 mph ENE4.3 kmh ENE 7.8 mph12.6 kmh 30.10 in1019.3 mb 0.00 in0.0 mm 0.00 in0.0 mm 0.00 in0.0 mm
03:00 PM 83.4°F28.6°C 63.4°F17.4°C 51% 4.2 mph E6.8 kmh E 11.5 mph18.5 kmh 30.10 in1019.3 mb 0.00 in0.0 mm 0.00 in0.0 mm 0.00 in0.0 mm
02:55 PM 83.2°F28.4°C 63.3°F17.4°C 51% 4.2 mph ESE6.8 kmh ESE 14.4 mph23.2 kmh 30.10 in1019.3 mb 0.00 in0.0 mm 0.00 in0.0 mm 0.00 in0.0 mm
02:50 PM 83.3°F28.5°C 63.2°F17.3°C 51% 4.4 mph E7.1 kmh E 12.8 mph20.6 kmh 30.10 in1019.3 mb 0.00 in0.0 mm 0.00 in0.0 mm 0.00 in0.0 mm
02:45 PM 83.0°F28.3°C 63.0°F17.2°C 51% 4.1 mph E6.6 kmh E 11.9 mph19.2 kmh 30.10 in1019.3 mb 0.00 in0.0 mm 0.00 in0.0 mm 0.00 in0.0 mm
02:40 PM 82.4°F28.0°C 62.9°F17.2°C 52% 4.4 mph ESE7.1 kmh ESE 11.5 mph18.5 kmh 30.10 in1019.3 mb 0.00 in0.0 mm 0.00 in0.0 mm 0.00 in0.0 mm
02:35 PM 82.2°F27.9°C 62.6°F17.0°C 52% 4.4 mph ESE7.1 kmh ESE 12.1 mph19.5 kmh 30.10 in1019.3 mb 0.00 in0.0 mm 0.00 in0.0 mm 0.00 in0.0 mm
02:30 PM 82.4°F28.0°C 62.6°F17.0°C 51% 5.1 mph ESE8.2 kmh ESE 14.3 mph23.0 kmh 30.11 in1019.6 mb 0.00 in0.0 mm 0.00 in0.0 mm 0.00 in0.0 mm
02:25 PM 82.3°F27.9°C 62.8°F17.1°C 52% 5.0 mph E8.0 kmh E 11.0 mph17.7 kmh 30.11 in1019.6 mb 0.00 in0.0 mm 0.00 in0.0 mm 0.00 in0.0 mm
02:20 PM 82.0°F27.8°C 62.3°F16.8°C 51% 3.8 mph ESE6.1 kmh ESE 9.0 mph14.5 kmh 30.11 in1019.6 mb 0.00 in0.0 mm 0.00 in0.0 mm 0.00 in0.0 mm
02:15 PM 81.9°F27.7°C 62.2°F16.8°C 51% 3.9 mph E6.3 kmh E 10.7 mph17.2 kmh 30.11 in1019.6 mb 0.00 in0.0 mm 0.00 in0.0 mm 0.00 in0.0 mm
02:10 PM 81.9°F27.7°C 62.5°F16.9°C 52% 4.8 mph E7.7 kmh E 12.0 mph19.3 kmh 30.11 in1019.6 mb 0.00 in0.0 mm 0.00 in0.0 mm 0.00 in0.0 mm
02:05 PM 81.7°F27.6°C 62.3°F16.8°C 52% 4.3 mph ESE6.9 kmh ESE 11.2 mph18.0 kmh 30.11 in1019.6 mb 0.00 in0.0 mm 0.00 in0.0 mm 0.00 in0.0 mm
02:00 PM 81.3°F27.4°C 62.1°F16.7°C 52% 5.0 mph E8.0 kmh E 13.8 mph22.2 kmh 30.11 in1019.6 mb 0.00 in0.0 mm 0.00 in0.0 mm 0.00 in0.0 mm
01:55 PM 80.8°F27.1°C 61.8°F16.6°C 52% 3.3 mph ESE5.3 kmh ESE 11.7 mph18.8 kmh 30.12 in1020.0 mb 0.00 in0.0 mm 0.00 in0.0 mm 0.00 in0.0 mm
01:50 PM 80.7°F27.1°C 61.4°F16.3°C 52% 3.7 mph E6.0 kmh E 9.2 mph14.8 kmh 30.12 in1020.0 mb 0.00 in0.0 mm 0.00 in0.0 mm 0.00 in0.0 mm
01:45 PM 81.0°F27.2°C 61.9°F16.6°C 52% 3.5 mph E5.6 kmh E 10.4 mph16.7 kmh 30.12 in1020.0 mb 0.00 in0.0 mm 0.00 in0.0 mm 0.00 in0.0 mm
01:40 PM 81.1°F27.3°C 62.2°F16.8°C 53% 5.1 mph E8.2 kmh E 13.9 mph22.4 kmh 30.12 in1020.0 mb 0.00 in0.0 mm 0.00 in0.0 mm 0.00 in0.0 mm
01:35 PM 80.5°F26.9°C 61.7°F16.5°C 53% 4.0 mph ESE6.4 kmh ESE 11.6 mph18.7 kmh 30.13 in1020.3 mb 0.00 in0.0 mm 0.00 in0.0 mm 0.00 in0.0 mm
01:30 PM 79.7°F26.5°C 61.0°F16.1°C 53% 3.7 mph ESE6.0 kmh ESE 9.8 mph15.8 kmh 30.13 in1020.3 mb 0.00 in0.0 mm 0.00 in0.0 mm 0.00 in0.0 mm
01:25 PM 79.5°F26.4°C 60.9°F16.1°C 53% 3.7 mph NE6.0 kmh NE 10.5 mph16.9 kmh 30.13 in1020.3 mb 0.00 in0.0 mm 0.00 in0.0 mm 0.00 in0.0 mm
01:20 PM 79.7°F26.5°C 61.0°F16.1°C 53% 4.0 mph E6.4 kmh E 10.9 mph17.5 kmh 30.13 in1020.3 mb 0.00 in0.0 mm 0.00 in0.0 mm 0.00 in0.0 mm
01:15 PM 79.7°F26.5°C 61.0°F16.1°C 53% 4.2 mph NE6.8 kmh NE 11.0 mph17.7 kmh 30.13 in1020.3 mb 0.00 in0.0 mm 0.00 in0.0 mm 0.00 in0.0 mm
01:10 PM 80.1°F26.7°C 61.4°F16.3°C 53% 4.9 mph E7.9 kmh E 11.2 mph18.0 kmh 30.13 in1020.3 mb 0.00 in0.0 mm 0.00 in0.0 mm 0.00 in0.0 mm
01:05 PM 79.8°F26.6°C 61.2°F16.2°C 53% 4.5 mph E7.2 kmh E 13.3 mph21.4 kmh 30.13 in1020.3 mb 0.00 in0.0 mm 0.00 in0.0 mm 0.00 in0.0 mm
01:00 PM 79.8°F26.6°C 60.9°F16.1°C 53% 3.7 mph E6.0 kmh E 10.7 mph17.2 kmh 30.13 in1020.3 mb 0.00 in0.0 mm 0.00 in0.0 mm 0.00 in0.0 mm
12:55 PM 80.3°F26.8°C 61.2°F16.2°C 52% 5.1 mph E8.2 kmh E 9.8 mph15.8 kmh 30.13 in1020.3 mb 0.00 in0.0 mm 0.00 in0.0 mm 0.00 in0.0 mm
12:50 PM 80.1°F26.7°C 61.4°F16.3°C 53% 4.9 mph E7.9 kmh E 13.8 mph22.2 kmh 30.13 in1020.3 mb 0.00 in0.0 mm 0.00 in0.0 mm 0.00 in0.0 mm
12:45 PM 80.0°F26.7°C 61.0°F16.1°C 52% 2.8 mph E4.5 kmh E 7.9 mph12.7 kmh 30.13 in1020.3 mb 0.00 in0.0 mm 0.00 in0.0 mm 0.00 in0.0 mm
12:40 PM 80.1°F26.7°C 61.4°F16.3°C 53% 3.3 mph ESE5.3 kmh ESE 7.8 mph12.6 kmh 30.13 in1020.3 mb 0.00 in0.0 mm 0.00 in0.0 mm 0.00 in0.0 mm
12:35 PM 80.0°F26.7°C 61.1°F16.2°C 53% 3.7 mph SE6.0 kmh SE 10.4 mph16.7 kmh 30.13 in1020.3 mb 0.00 in0.0 mm 0.00 in0.0 mm 0.00 in0.0 mm
12:30 PM 80.1°F26.7°C 61.4°F16.3°C 53% 3.5 mph SE5.6 kmh SE 11.8 mph19.0 kmh 30.13 in1020.3 mb 0.00 in0.0 mm 0.00 in0.0 mm 0.00 in0.0 mm
12:25 PM 79.9°F26.6°C 61.2°F16.2°C 53% 3.9 mph ESE6.3 kmh ESE 10.1 mph16.3 kmh 30.13 in1020.3 mb 0.00 in0.0 mm 0.00 in0.0 mm 0.00 in0.0 mm
12:20 PM 79.6°F26.4°C 61.0°F16.1°C 53% 4.2 mph ESE6.8 kmh ESE 9.8 mph15.8 kmh 30.13 in1020.3 mb 0.00 in0.0 mm 0.00 in0.0 mm 0.00 in0.0 mm
12:15 PM 79.4°F26.3°C 60.8°F16.0°C 53% 3.0 mph ESE4.8 kmh ESE 6.9 mph11.1 kmh 30.14 in1020.7 mb 0.00 in0.0 mm 0.00 in0.0 mm 0.00 in0.0 mm
12:10 PM 79.0°F26.1°C 60.8°F16.0°C 54% 2.7 mph SE4.3 kmh SE 7.7 mph12.4 kmh 30.14 in1020.7 mb 0.00 in0.0 mm 0.00 in0.0 mm 0.00 in0.0 mm
12:05 PM 78.6°F25.9°C 60.1°F15.6°C 53% 3.5 mph S5.6 kmh S 8.6 mph13.8 kmh 30.14 in1020.7 mb 0.00 in0.0 mm 0.00 in0.0 mm 0.00 in0.0 mm
12:00 PM 78.6°F25.9°C 60.6°F15.9°C 54% 4.4 mph E7.1 kmh E 13.4 mph21.6 kmh 30.14 in1020.7 mb 0.00 in0.0 mm 0.00 in0.0 mm 0.00 in0.0 mm
11:55 AM 78.0°F25.6°C 60.1°F15.6°C 54% 3.0 mph SE4.8 kmh SE 11.3 mph18.2 kmh 30.15 in1021.0 mb 0.00 in0.0 mm 0.00 in0.0 mm 0.00 in0.0 mm
11:50 AM 77.7°F25.4°C 60.3°F15.7°C 55% 3.3 mph SE5.3 kmh SE 9.4 mph15.1 kmh 30.15 in1021.0 mb 0.00 in0.0 mm 0.00 in0.0 mm 0.00 in0.0 mm
11:45 AM 77.6°F25.3°C 59.3°F15.2°C 53% 3.7 mph ENE6.0 kmh ENE 9.5 mph15.3 kmh 30.15 in1021.0 mb 0.00 in0.0 mm 0.00 in0.0 mm 0.00 in0.0 mm
11:40 AM 77.4°F25.2°C 59.4°F15.2°C 54% 2.8 mph E4.5 kmh E 14.3 mph23.0 kmh 30.15 in1021.0 mb 0.00 in0.0 mm 0.00 in0.0 mm 0.00 in0.0 mm
11:35 AM 77.8°F25.4°C 59.3°F15.2°C 53% 2.5 mph ENE4.0 kmh ENE 6.4 mph10.3 kmh 30.15 in1021.0 mb 0.00 in0.0 mm 0.00 in0.0 mm 0.00 in0.0 mm
11:30 AM 77.5°F25.3°C 59.0°F15.0°C 53% 1.9 mph NE3.1 kmh NE 5.5 mph8.9 kmh 30.15 in1021.0 mb 0.00 in0.0 mm 0.00 in0.0 mm 0.00 in0.0 mm
11:25 AM 77.3°F25.2°C 59.4°F15.2°C 54% 2.7 mph E4.3 kmh E 8.7 mph14.0 kmh 30.15 in1021.0 mb 0.00 in0.0 mm 0.00 in0.0 mm 0.00 in0.0 mm
11:20 AM 76.8°F24.9°C 59.4°F15.2°C 55% 2.6 mph ESE4.2 kmh ESE 8.4 mph13.5 kmh 30.16 in1021.3 mb 0.00 in0.0 mm 0.00 in0.0 mm 0.00 in0.0 mm
11:15 AM 76.4°F24.7°C 58.7°F14.8°C 54% 2.3 mph NW3.7 kmh NW 7.5 mph12.1 kmh 30.16 in1021.3 mb 0.00 in0.0 mm 0.00 in0.0 mm 0.00 in0.0 mm
11:10 AM 76.7°F24.8°C 58.5°F14.7°C 53% 2.0 mph NE3.2 kmh NE 5.9 mph9.5 kmh 30.16 in1021.3 mb 0.00 in0.0 mm 0.00 in0.0 mm 0.00 in0.0 mm
11:05 AM 76.5°F24.7°C 58.3°F14.6°C 53% 2.1 mph E3.4 kmh E 5.0 mph8.0 kmh 30.16 in1021.3 mb 0.00 in0.0 mm 0.00 in0.0 mm 0.00 in0.0 mm
11:00 AM 76.2°F24.6°C 58.2°F14.6°C 54% 2.2 mph E3.5 kmh E 6.8 mph10.9 kmh 30.16 in1021.3 mb 0.00 in0.0 mm 0.00 in0.0 mm 0.00 in0.0 mm
10:55 AM 75.9°F24.4°C 58.7°F14.8°C 55% 2.2 mph E3.5 kmh E 5.9 mph9.5 kmh 30.16 in1021.3 mb 0.00 in0.0 mm 0.00 in0.0 mm 0.00 in0.0 mm
10:50 AM 75.6°F24.2°C 58.4°F14.7°C 55% 1.3 mph E2.1 kmh E 4.3 mph6.9 kmh 30.16 in1021.3 mb 0.00 in0.0 mm 0.00 in0.0 mm 0.00 in0.0 mm
10:45 AM 75.3°F24.1°C 58.8°F14.9°C 57% 1.9 mph E3.1 kmh E 5.3 mph8.5 kmh 30.16 in1021.3 mb 0.00 in0.0 mm 0.00 in0.0 mm 0.00 in0.0 mm
10:40 AM 75.2°F24.0°C 58.9°F14.9°C 57% 1.4 mph E2.3 kmh E 4.0 mph6.4 kmh 30.17 in1021.7 mb 0.00 in0.0 mm 0.00 in0.0 mm 0.00 in0.0 mm
10:35 AM 75.3°F24.1°C 59.3°F15.2°C 58% 2.4 mph E3.9 kmh E 6.4 mph10.3 kmh 30.17 in1021.7 mb 0.00 in0.0 mm 0.00 in0.0 mm 0.00 in0.0 mm
10:30 AM 74.9°F23.8°C 59.1°F15.1°C 58% 2.0 mph ESE3.2 kmh ESE 4.2 mph6.8 kmh 30.17 in1021.7 mb 0.00 in0.0 mm 0.00 in0.0 mm 0.00 in0.0 mm
10:25 AM 74.5°F23.6°C 59.2°F15.1°C 59% 2.0 mph ESE3.2 kmh ESE 5.6 mph9.0 kmh 30.17 in1021.7 mb 0.00 in0.0 mm 0.00 in0.0 mm 0.00 in0.0 mm
10:20 AM 74.2°F23.4°C 59.4°F15.2°C 60% 1.9 mph SE3.1 kmh SE 5.3 mph8.5 kmh 30.18 in1022.0 mb 0.00 in0.0 mm 0.00 in0.0 mm 0.00 in0.0 mm
10:15 AM 73.7°F23.2°C 59.3°F15.2°C 61% 2.2 mph S3.5 kmh S 5.6 mph9.0 kmh 30.18 in1022.0 mb 0.00 in0.0 mm 0.00 in0.0 mm 0.00 in0.0 mm
10:10 AM 73.2°F22.9°C 59.3°F15.2°C 62% 2.0 mph ENE3.2 kmh ENE 5.1 mph8.2 kmh 30.18 in1022.0 mb 0.00 in0.0 mm 0.00 in0.0 mm 0.00 in0.0 mm
10:05 AM 72.7°F22.6°C 59.0°F15.0°C 62% 1.3 mph E2.1 kmh E 4.1 mph6.6 kmh 30.18 in1022.0 mb 0.00 in0.0 mm 0.00 in0.0 mm 0.00 in0.0 mm
10:00 AM 72.3°F22.4°C 59.0°F15.0°C 63% 1.5 mph SE2.4 kmh SE 4.0 mph6.4 kmh 30.18 in1022.0 mb 0.00 in0.0 mm 0.00 in0.0 mm 0.00 in0.0 mm
09:55 AM 71.9°F22.2°C 58.6°F14.8°C 63% 1.7 mph SE2.7 kmh SE 3.3 mph5.3 kmh 30.18 in1022.0 mb 0.00 in0.0 mm 0.00 in0.0 mm 0.00 in0.0 mm
09:50 AM 71.8°F22.1°C 59.3°F15.2°C 65% 1.2 mph N1.9 kmh N 3.6 mph5.8 kmh 30.19 in1022.4 mb 0.00 in0.0 mm 0.00 in0.0 mm 0.00 in0.0 mm
09:45 AM 71.5°F21.9°C 59.1°F15.1°C 65% 1.4 mph ESE2.3 kmh ESE 3.5 mph5.6 kmh 30.19 in1022.4 mb 0.00 in0.0 mm 0.00 in0.0 mm 0.00 in0.0 mm
09:40 AM 70.9°F21.6°C 58.9°F14.9°C 66% 0.5 mph SSE0.8 kmh SSE 2.1 mph3.4 kmh 30.19 in1022.4 mb 0.00 in0.0 mm 0.00 in0.0 mm 0.00 in0.0 mm
09:35 AM 70.2°F21.2°C 58.7°F14.8°C 67% 1.0 mph SE1.6 kmh SE 3.1 mph5.0 kmh 30.20 in1022.7 mb 0.00 in0.0 mm 0.00 in0.0 mm 0.00 in0.0 mm
09:30 AM 69.6°F20.9°C 58.4°F14.7°C 68% 1.1 mph ENE1.8 kmh ENE 3.8 mph6.1 kmh 30.20 in1022.7 mb 0.00 in0.0 mm 0.00 in0.0 mm 0.00 in0.0 mm
09:25 AM 69.1°F20.6°C 58.3°F14.6°C 68% 1.4 mph ENE2.3 kmh ENE 3.9 mph6.3 kmh 30.20 in1022.7 mb 0.00 in0.0 mm 0.00 in0.0 mm 0.00 in0.0 mm
09:20 AM 68.8°F20.4°C 58.2°F14.6°C 69% 1.4 mph E2.3 kmh E 3.2 mph5.1 kmh 30.20 in1022.7 mb 0.00 in0.0 mm 0.00 in0.0 mm 0.00 in0.0 mm
09:15 AM 68.5°F20.3°C 57.9°F14.4°C 69% 1.3 mph ENE2.1 kmh ENE 4.3 mph6.9 kmh 30.20 in1022.7 mb 0.00 in0.0 mm 0.00 in0.0 mm 0.00 in0.0 mm
09:10 AM 68.3°F20.2°C 58.1°F14.5°C 70% 1.0 mph NE1.6 kmh NE 3.3 mph5.3 kmh 30.20 in1022.7 mb 0.00 in0.0 mm 0.00 in0.0 mm 0.00 in0.0 mm
09:05 AM 68.2°F20.1°C 58.5°F14.7°C 71% 1.2 mph NNE1.9 kmh NNE 4.2 mph6.8 kmh 30.20 in1022.7 mb 0.00 in0.0 mm 0.00 in0.0 mm 0.00 in0.0 mm
09:00 AM 68.1°F20.1°C 57.5°F14.2°C 69% 1.6 mph ENE2.6 kmh ENE 5.2 mph8.4 kmh 30.20 in1022.7 mb 0.00 in0.0 mm 0.00 in0.0 mm 0.00 in0.0 mm
08:55 AM 67.8°F19.9°C 57.3°F14.1°C 69% 0.7 mph SE1.1 kmh SE 1.9 mph3.1 kmh 30.20 in1022.7 mb 0.00 in0.0 mm 0.00 in0.0 mm 0.00 in0.0 mm
08:50 AM 67.7°F19.8°C 57.0°F13.9°C 69% 0.6 mph SE1.0 kmh SE 1.8 mph2.9 kmh 30.20 in1022.7 mb 0.00 in0.0 mm 0.00 in0.0 mm 0.00 in0.0 mm
08:45 AM 67.4°F19.7°C 56.7°F13.7°C 68% 0.9 mph SE1.4 kmh SE 1.9 mph3.1 kmh 30.20 in1022.7 mb 0.00 in0.0 mm 0.00 in0.0 mm 0.00 in0.0 mm
08:40 AM 67.2°F19.6°C 56.3°F13.5°C 68% Calm Calm 0.9 mph1.4 kmh 30.20 in1022.7 mb 0.00 in0.0 mm 0.00 in0.0 mm 0.00 in0.0 mm
08:35 AM 67.0°F19.4°C 55.7°F13.2°C 67% 0.1 mph SW0.2 kmh SW 1.9 mph3.1 kmh 30.21 in1023.0 mb 0.00 in0.0 mm 0.00 in0.0 mm 0.00 in0.0 mm
08:30 AM 66.8°F19.3°C 55.4°F13.0°C 67% 0.3 mph SW0.5 kmh SW 1.6 mph2.6 kmh 30.21 in1023.0 mb 0.00 in0.0 mm 0.00 in0.0 mm 0.00 in0.0 mm
08:25 AM 66.5°F19.2°C 55.6°F13.1°C 68% 0.6 mph SW1.0 kmh SW 2.1 mph3.4 kmh 30.21 in1023.0 mb 0.00 in0.0 mm 0.00 in0.0 mm 0.00 in0.0 mm
08:20 AM 66.4°F19.1°C 55.9°F13.3°C 69% 1.1 mph SSW1.8 kmh SSW 2.5 mph4.0 kmh 30.21 in1023.0 mb 0.00 in0.0 mm 0.00 in0.0 mm 0.00 in0.0 mm
08:15 AM 66.2°F19.0°C 56.2°F13.4°C 70% 0.5 mph SSW0.8 kmh SSW 1.9 mph3.1 kmh 30.21 in1023.0 mb 0.00 in0.0 mm 0.00 in0.0 mm 0.00 in0.0 mm
08:10 AM 66.0°F18.9°C 56.0°F13.3°C 70% 0.4 mph SW0.6 kmh SW 1.8 mph2.9 kmh 30.21 in1023.0 mb 0.00 in0.0 mm 0.00 in0.0 mm 0.00 in0.0 mm
08:05 AM 65.6°F18.7°C 54.4°F12.4°C 67% 0.4 mph W0.6 kmh W 1.8 mph2.9 kmh 30.21 in1023.0 mb 0.00 in0.0 mm 0.00 in0.0 mm 0.00 in0.0 mm
08:00 AM 65.3°F18.5°C 52.8°F11.6°C 64% 0.7 mph W1.1 kmh W 2.4 mph3.9 kmh 30.21 in1023.0 mb 0.00 in0.0 mm 0.00 in0.0 mm 0.00 in0.0 mm
07:55 AM 65.1°F18.4°C 52.0°F11.1°C 62% 0.7 mph W1.1 kmh W 2.4 mph3.9 kmh 30.20 in1022.7 mb 0.00 in0.0 mm 0.00 in0.0 mm 0.00 in0.0 mm
07:50 AM 65.1°F18.4°C 51.3°F10.7°C 61% 0.5 mph WSW0.8 kmh WSW 1.4 mph2.3 kmh 30.20 in1022.7 mb 0.00 in0.0 mm 0.00 in0.0 mm 0.00 in0.0 mm
07:45 AM 65.2°F18.4°C 51.4°F10.8°C 61% 0.3 mph WSW0.5 kmh WSW 1.5 mph2.4 kmh 30.20 in1022.7 mb 0.00 in0.0 mm 0.00 in0.0 mm 0.00 in0.0 mm
07:40 AM 65.2°F18.4°C 51.0°F10.6°C 60% 0.5 mph WSW0.8 kmh WSW 1.6 mph2.6 kmh 30.20 in1022.7 mb 0.00 in0.0 mm 0.00 in0.0 mm 0.00 in0.0 mm
07:35 AM 65.2°F18.4°C 50.9°F10.5°C 60% 0.4 mph W0.6 kmh W 1.8 mph2.9 kmh 30.20 in1022.7 mb 0.00 in0.0 mm 0.00 in0.0 mm 0.00 in0.0 mm
07:30 AM 65.0°F18.3°C 50.8°F10.4°C 60% 0.8 mph W1.3 kmh W 2.4 mph3.9 kmh 30.20 in1022.7 mb 0.00 in0.0 mm 0.00 in0.0 mm 0.00 in0.0 mm
07:25 AM 64.9°F18.3°C 50.7°F10.4°C 60% 0.7 mph W1.1 kmh W 3.0 mph4.8 kmh 30.20 in1022.7 mb 0.00 in0.0 mm 0.00 in0.0 mm 0.00 in0.0 mm
07:20 AM 64.7°F18.2°C 50.5°F10.3°C 60% 1.0 mph W1.6 kmh W 2.4 mph3.9 kmh 30.20 in1022.7 mb 0.00 in0.0 mm 0.00 in0.0 mm 0.00 in0.0 mm
07:15 AM 64.6°F18.1°C 50.7°F10.4°C 61% 0.8 mph W1.3 kmh W 2.7 mph4.3 kmh 30.20 in1022.7 mb 0.00 in0.0 mm 0.00 in0.0 mm 0.00 in0.0 mm
07:10 AM 64.4°F18.0°C 50.7°F10.4°C 61% 0.9 mph WSW1.4 kmh WSW 3.0 mph4.8 kmh 30.20 in1022.7 mb 0.00 in0.0 mm 0.00 in0.0 mm 0.00 in0.0 mm
07:05 AM 64.4°F18.0°C 50.6°F10.3°C 61% 1.1 mph WSW1.8 kmh WSW 3.3 mph5.3 kmh 30.20 in1022.7 mb 0.00 in0.0 mm 0.00 in0.0 mm 0.00 in0.0 mm
07:00 AM 64.4°F18.0°C 50.7°F10.4°C 61% 1.1 mph W1.8 kmh W 4.3 mph6.9 kmh 30.20 in1022.7 mb 0.00 in0.0 mm 0.00 in0.0 mm 0.00 in0.0 mm
06:55 AM 64.6°F18.1°C 50.8°F10.4°C 61% 1.1 mph W1.8 kmh W 3.3 mph5.3 kmh 30.20 in1022.7 mb 0.00 in0.0 mm 0.00 in0.0 mm 0.00 in0.0 mm
06:50 AM 64.6°F18.1°C 50.8°F10.4°C 61% 1.1 mph WSW1.8 kmh WSW 1.9 mph3.1 kmh 30.20 in1022.7 mb 0.00 in0.0 mm 0.00 in0.0 mm 0.00 in0.0 mm
06:45 AM 64.6°F18.1°C 51.0°F10.6°C 61% 1.2 mph WSW1.9 kmh WSW 2.5 mph4.0 kmh 30.20 in1022.7 mb 0.00 in0.0 mm 0.00 in0.0 mm 0.00 in0.0 mm
06:40 AM 64.7°F18.2°C 51.0°F10.6°C 61% 0.6 mph W1.0 kmh W 1.5 mph2.4 kmh 30.19 in1022.4 mb 0.00 in0.0 mm 0.00 in0.0 mm 0.00 in0.0 mm
06:35 AM 64.8°F18.2°C 51.0°F10.6°C 61% 0.9 mph WSW1.4 kmh WSW 2.2 mph3.5 kmh 30.19 in1022.4 mb 0.00 in0.0 mm 0.00 in0.0 mm 0.00 in0.0 mm
06:30 AM 64.8°F18.2°C 51.1°F10.6°C 61% 0.9 mph W1.4 kmh W 2.8 mph4.5 kmh 30.19 in1022.4 mb 0.00 in0.0 mm 0.00 in0.0 mm 0.00 in0.0 mm
06:25 AM 64.8°F18.2°C 51.5°F10.8°C 62% 1.1 mph W1.8 kmh W 4.2 mph6.8 kmh 30.19 in1022.4 mb 0.00 in0.0 mm 0.00 in0.0 mm 0.00 in0.0 mm
06:20 AM 64.7°F18.2°C 51.3°F10.7°C 62% 1.1 mph W1.8 kmh W 2.8 mph4.5 kmh 30.19 in1022.4 mb 0.00 in0.0 mm 0.00 in0.0 mm 0.00 in0.0 mm
06:15 AM 64.7°F18.2°C 51.4°F10.8°C 62% 0.7 mph W1.1 kmh W 2.5 mph4.0 kmh 30.19 in1022.4 mb 0.00 in0.0 mm 0.00 in0.0 mm 0.00 in0.0 mm
06:10 AM 64.8°F18.2°C 51.2°F10.7°C 61% 0.8 mph W1.3 kmh W 2.8 mph4.5 kmh 30.19 in1022.4 mb 0.00 in0.0 mm 0.00 in0.0 mm 0.00 in0.0 mm
06:05 AM 64.8°F18.2°C 51.0°F10.6°C 61% 0.7 mph W1.1 kmh W 2.3 mph3.7 kmh 30.19 in1022.4 mb 0.00 in0.0 mm 0.00 in0.0 mm 0.00 in0.0 mm
06:00 AM 64.6°F18.1°C 50.8°F10.4°C 61% 1.0 mph W1.6 kmh W 4.3 mph6.9 kmh 30.19 in1022.4 mb 0.00 in0.0 mm 0.00 in0.0 mm 0.00 in0.0 mm
05:55 AM 64.4°F18.0°C 50.7°F10.4°C 61% 0.9 mph W1.4 kmh W 2.8 mph4.5 kmh 30.19 in1022.4 mb 0.00 in0.0 mm 0.00 in0.0 mm 0.00 in0.0 mm
05:50 AM 64.3°F17.9°C 50.6°F10.3°C 61% 0.9 mph W1.4 kmh W 2.5 mph4.0 kmh 30.19 in1022.4 mb 0.00 in0.0 mm 0.00 in0.0 mm 0.00 in0.0 mm
05:45 AM 64.3°F17.9°C 50.6°F10.3°C 61% 0.9 mph W1.4 kmh W 3.6 mph5.8 kmh 30.19 in1022.4 mb 0.00 in0.0 mm 0.00 in0.0 mm 0.00 in0.0 mm
05:40 AM 64.4°F18.0°C 50.8°F10.4°C 61% 0.9 mph W1.4 kmh W 2.7 mph4.3 kmh 30.19 in1022.4 mb 0.00 in0.0 mm 0.00 in0.0 mm 0.00 in0.0 mm
05:35 AM 64.6°F18.1°C 50.9°F10.5°C 61% 0.9 mph W1.4 kmh W 3.3 mph5.3 kmh 30.19 in1022.4 mb 0.00 in0.0 mm 0.00 in0.0 mm 0.00 in0.0 mm
05:30 AM 64.6°F18.1°C 51.2°F10.7°C 62% 0.5 mph W0.8 kmh W 2.1 mph3.4 kmh 30.19 in1022.4 mb 0.00 in0.0 mm 0.00 in0.0 mm 0.00 in0.0 mm
05:25 AM 64.4°F18.0°C 51.7°F10.9°C 63% 0.8 mph W1.3 kmh W 2.0 mph3.2 kmh 30.19 in1022.4 mb 0.00 in0.0 mm 0.00 in0.0 mm 0.00 in0.0 mm
05:20 AM 64.4°F18.0°C 52.4°F11.3°C 65% 0.2 mph WNW0.3 kmh WNW 1.8 mph2.9 kmh 30.19 in1022.4 mb 0.00 in0.0 mm 0.00 in0.0 mm 0.00 in0.0 mm
05:15 AM 64.5°F18.1°C 52.7°F11.5°C 66% 0.6 mph W1.0 kmh W 1.8 mph2.9 kmh 30.19 in1022.4 mb 0.00 in0.0 mm 0.00 in0.0 mm 0.00 in0.0 mm
05:10 AM 64.6°F18.1°C 52.9°F11.6°C 66% 0.7 mph W1.1 kmh W 2.0 mph3.2 kmh 30.19 in1022.4 mb 0.00 in0.0 mm 0.00 in0.0 mm 0.00 in0.0 mm
05:05 AM 64.5°F18.1°C 53.3°F11.8°C 67% 0.7 mph W1.1 kmh W 2.3 mph3.7 kmh 30.19 in1022.4 mb 0.00 in0.0 mm 0.00 in0.0 mm 0.00 in0.0 mm
05:00 AM 64.4°F18.0°C 53.4°F11.9°C 68% 0.9 mph W1.4 kmh W 3.0 mph4.8 kmh 30.19 in1022.4 mb 0.00 in0.0 mm 0.00 in0.0 mm 0.00 in0.0 mm
04:55 AM 64.3°F17.9°C 53.5°F11.9°C 68% 1.2 mph WSW1.9 kmh WSW 3.5 mph5.6 kmh 30.19 in1022.4 mb 0.00 in0.0 mm 0.00 in0.0 mm 0.00 in0.0 mm
04:50 AM 64.2°F17.9°C 53.4°F11.9°C 68% 1.3 mph WSW2.1 kmh WSW 4.1 mph6.6 kmh 30.19 in1022.4 mb 0.00 in0.0 mm 0.00 in0.0 mm 0.00 in0.0 mm
04:45 AM 64.2°F17.9°C 53.4°F11.9°C 68% 0.9 mph W1.4 kmh W 2.9 mph4.7 kmh 30.19 in1022.4 mb 0.00 in0.0 mm 0.00 in0.0 mm 0.00 in0.0 mm
04:40 AM 64.3°F17.9°C 53.5°F11.9°C 68% 0.6 mph W1.0 kmh W 1.6 mph2.6 kmh 30.19 in1022.4 mb 0.00 in0.0 mm 0.00 in0.0 mm 0.00 in0.0 mm
04:35 AM 64.4°F18.0°C 53.6°F12.0°C 68% 0.8 mph W1.3 kmh W 2.1 mph3.4 kmh 30.19 in1022.4 mb 0.00 in0.0 mm 0.00 in0.0 mm 0.00 in0.0 mm
04:30 AM 64.6°F18.1°C 53.8°F12.1°C 68% 0.6 mph W1.0 kmh W 1.7 mph2.7 kmh 30.19 in1022.4 mb 0.00 in0.0 mm 0.00 in0.0 mm 0.00 in0.0 mm
04:25 AM 64.6°F18.1°C 54.2°F12.3°C 69% 0.2 mph W0.3 kmh W 1.4 mph2.3 kmh 30.19 in1022.4 mb 0.00 in0.0 mm 0.00 in0.0 mm 0.00 in0.0 mm
04:20 AM 64.4°F18.0°C 54.0°F12.2°C 69% 0.8 mph W1.3 kmh W 3.5 mph5.6 kmh 30.19 in1022.4 mb 0.00 in0.0 mm 0.00 in0.0 mm 0.00 in0.0 mm
04:15 AM 64.3°F17.9°C 53.9°F12.2°C 69% 1.0 mph W1.6 kmh W 2.8 mph4.5 kmh 30.20 in1022.7 mb 0.00 in0.0 mm 0.00 in0.0 mm 0.00 in0.0 mm
04:10 AM 64.5°F18.1°C 54.1°F12.3°C 69% 0.7 mph WSW1.1 kmh WSW 1.9 mph3.1 kmh 30.20 in1022.7 mb 0.00 in0.0 mm 0.00 in0.0 mm 0.00 in0.0 mm
04:05 AM 64.7°F18.2°C 54.3°F12.4°C 69% 0.4 mph W0.6 kmh W 2.5 mph4.0 kmh 30.20 in1022.7 mb 0.00 in0.0 mm 0.00 in0.0 mm 0.00 in0.0 mm
04:00 AM 64.8°F18.2°C 54.4°F12.4°C 69% 1.2 mph W1.9 kmh W 4.2 mph6.8 kmh 30.20 in1022.7 mb 0.00 in0.0 mm 0.00 in0.0 mm 0.00 in0.0 mm
03:55 AM 64.8°F18.2°C 54.4°F12.4°C 69% 1.0 mph W1.6 kmh W 2.1 mph3.4 kmh 30.20 in1022.7 mb 0.00 in0.0 mm 0.00 in0.0 mm 0.00 in0.0 mm
03:50 AM 64.9°F18.3°C 54.4°F12.4°C 69% 0.9 mph WSW1.4 kmh WSW 2.7 mph4.3 kmh 30.20 in1022.7 mb 0.00 in0.0 mm 0.00 in0.0 mm 0.00 in0.0 mm
03:45 AM 65.0°F18.3°C 54.3°F12.4°C 68% 0.7 mph W1.1 kmh W 2.0 mph3.2 kmh 30.20 in1022.7 mb 0.00 in0.0 mm 0.00 in0.0 mm 0.00 in0.0 mm
03:40 AM 65.0°F18.3°C 54.4°F12.4°C 69% 1.0 mph WSW1.6 kmh WSW 2.4 mph3.9 kmh 30.20 in1022.7 mb 0.00 in0.0 mm 0.00 in0.0 mm 0.00 in0.0 mm
03:35 AM 65.1°F18.4°C 54.0°F12.2°C 67% 0.7 mph W1.1 kmh W 3.2 mph5.1 kmh 30.21 in1023.0 mb 0.00 in0.0 mm 0.00 in0.0 mm 0.00 in0.0 mm
03:30 AM 65.3°F18.5°C 54.0°F12.2°C 67% 0.3 mph WSW0.5 kmh WSW 1.9 mph3.1 kmh 30.20 in1022.7 mb 0.00 in0.0 mm 0.00 in0.0 mm 0.00 in0.0 mm
03:25 AM 65.5°F18.6°C 54.3°F12.4°C 67% 0.5 mph W0.8 kmh W 2.1 mph3.4 kmh 30.21 in1023.0 mb 0.00 in0.0 mm 0.00 in0.0 mm 0.00 in0.0 mm
03:20 AM 65.5°F18.6°C 54.5°F12.5°C 68% 0.8 mph SW1.3 kmh SW 2.3 mph3.7 kmh 30.21 in1023.0 mb 0.00 in0.0 mm 0.00 in0.0 mm 0.00 in0.0 mm
03:15 AM 65.4°F18.6°C 54.6°F12.6°C 68% 0.5 mph WSW0.8 kmh WSW 1.7 mph2.7 kmh 30.21 in1023.0 mb 0.00 in0.0 mm 0.00 in0.0 mm 0.00 in0.0 mm
03:10 AM 65.3°F18.5°C 54.5°F12.5°C 68% 0.6 mph WSW1.0 kmh WSW 1.9 mph3.1 kmh 30.21 in1023.0 mb 0.00 in0.0 mm 0.00 in0.0 mm 0.00 in0.0 mm
03:05 AM 65.3°F18.5°C 54.5°F12.5°C 68% 0.8 mph W1.3 kmh W 1.9 mph3.1 kmh 30.21 in1023.0 mb 0.00 in0.0 mm 0.00 in0.0 mm 0.00 in0.0 mm
03:00 AM 65.4°F18.6°C 54.6°F12.6°C 68% 0.7 mph W1.1 kmh W 2.2 mph3.5 kmh 30.21 in1023.0 mb 0.00 in0.0 mm 0.00 in0.0 mm 0.00 in0.0 mm
02:55 AM 65.5°F18.6°C 54.6°F12.6°C 68% 0.6 mph W1.0 kmh W 1.8 mph2.9 kmh 30.21 in1023.0 mb 0.00 in0.0 mm 0.00 in0.0 mm 0.00 in0.0 mm
02:50 AM 65.6°F18.7°C 54.7°F12.6°C 68% 0.6 mph W1.0 kmh W 2.6 mph4.2 kmh 30.21 in1023.0 mb 0.00 in0.0 mm 0.00 in0.0 mm 0.00 in0.0 mm
02:45 AM 65.7°F18.7°C 54.8°F12.7°C 68% 0.4 mph W0.6 kmh W 2.5 mph4.0 kmh 30.21 in1023.0 mb 0.00 in0.0 mm 0.00 in0.0 mm 0.00 in0.0 mm
02:40 AM 65.7°F18.7°C 54.8°F12.7°C 68% 1.0 mph WSW1.6 kmh WSW 3.7 mph6.0 kmh 30.21 in1023.0 mb 0.00 in0.0 mm 0.00 in0.0 mm 0.00 in0.0 mm
02:35 AM 65.8°F18.8°C 54.8°F12.7°C 68% 0.9 mph W1.4 kmh W 2.9 mph4.7 kmh 30.21 in1023.0 mb 0.00 in0.0 mm 0.00 in0.0 mm 0.00 in0.0 mm
02:30 AM 65.9°F18.8°C 54.7°F12.6°C 67% 0.8 mph W1.3 kmh W 2.0 mph3.2 kmh 30.21 in1023.0 mb 0.00 in0.0 mm 0.00 in0.0 mm 0.00 in0.0 mm
02:25 AM 65.9°F18.8°C 54.7°F12.6°C 67% 0.8 mph W1.3 kmh W 3.2 mph5.1 kmh 30.21 in1023.0 mb 0.00 in0.0 mm 0.00 in0.0 mm 0.00 in0.0 mm
02:20 AM 65.9°F18.8°C 54.6°F12.6°C 67% 1.0 mph W1.6 kmh W 3.6 mph5.8 kmh 30.21 in1023.0 mb 0.00 in0.0 mm 0.00 in0.0 mm 0.00 in0.0 mm
02:15 AM 65.9°F18.8°C 54.7°F12.6°C 67% 0.9 mph W1.4 kmh W 3.8 mph6.1 kmh 30.21 in1023.0 mb 0.00 in0.0 mm 0.00 in0.0 mm 0.00 in0.0 mm
02:10 AM 65.9°F18.8°C 54.7°F12.6°C 67% 1.0 mph W1.6 kmh W 3.9 mph6.3 kmh 30.21 in1023.0 mb 0.00 in0.0 mm 0.00 in0.0 mm 0.00 in0.0 mm
02:07 AM 63.8°F17.7°C 56.8°F13.8°C 78% Calm Calm -- 29.93 in1013.5 mb - 0.00 in0.0 mm 0.00 in0.0 mm
02:05 AM 65.9°F18.8°C 54.7°F12.6°C 67% 0.9 mph W1.4 kmh W 4.0 mph6.4 kmh 30.21 in1023.0 mb 0.00 in0.0 mm 0.00 in0.0 mm 0.00 in0.0 mm
02:01 AM 63.7°F17.6°C 56.7°F13.7°C 78% Calm Calm -- 29.93 in1013.5 mb - 0.00 in0.0 mm 0.00 in0.0 mm
02:00 AM 66.1°F18.9°C 54.8°F12.7°C 67% 0.8 mph W1.3 kmh W 1.9 mph3.1 kmh 30.21 in1023.0 mb 0.00 in0.0 mm 0.00 in0.0 mm 0.00 in0.0 mm
01:56 AM 63.6°F17.6°C 57.0°F13.9°C 79% Calm Calm -- 29.93 in1013.5 mb - 0.00 in0.0 mm 0.00 in0.0 mm
01:55 AM 66.2°F19.0°C 54.9°F12.7°C 67% 0.9 mph W1.4 kmh W 3.7 mph6.0 kmh 30.21 in1023.0 mb 0.00 in0.0 mm 0.00 in0.0 mm 0.00 in0.0 mm
01:50 AM 66.2°F19.0°C 54.9°F12.7°C 67% 0.9 mph W1.4 kmh W 3.7 mph6.0 kmh 30.21 in1023.0 mb 0.00 in0.0 mm 0.00 in0.0 mm 0.00 in0.0 mm
01:45 AM 63.3°F17.4°C 57.0°F13.9°C 80% Calm Calm -- 29.93 in1013.5 mb - 0.00 in0.0 mm 0.00 in0.0 mm
01:40 AM 66.1°F18.9°C 55.0°F12.8°C 67% 0.7 mph W1.1 kmh W 2.5 mph4.0 kmh 30.21 in1023.0 mb 0.00 in0.0 mm 0.00 in0.0 mm 0.00 in0.0 mm
01:39 AM 63.3°F17.4°C 57.4°F14.1°C 81% Calm Calm 1.2 mph1.9 kmh 29.93 in1013.5 mb - 0.00 in0.0 mm 0.00 in0.0 mm
01:35 AM 66.1°F18.9°C 55.2°F12.9°C 68% 0.9 mph W1.4 kmh W 2.6 mph4.2 kmh 30.21 in1023.0 mb 0.00 in0.0 mm 0.00 in0.0 mm 0.00 in0.0 mm
01:33 AM 63.7°F17.6°C 58.4°F14.7°C 83% Calm Calm 1.2 mph1.9 kmh 29.93 in1013.5 mb - 0.00 in0.0 mm 0.00 in0.0 mm
01:30 AM 66.0°F18.9°C 55.7°F13.2°C 69% 1.0 mph W1.6 kmh W 2.3 mph3.7 kmh 30.21 in1023.0 mb 0.00 in0.0 mm 0.00 in0.0 mm 0.00 in0.0 mm
01:28 AM 64.3°F17.9°C 59.7°F15.4°C 85% Calm Calm -- 29.93 in1013.5 mb - 0.00 in0.0 mm 0.00 in0.0 mm
01:25 AM 66.0°F18.9°C 56.6°F13.7°C 72% 0.8 mph W1.3 kmh W 2.6 mph4.2 kmh 30.22 in1023.4 mb 0.00 in0.0 mm 0.00 in0.0 mm 0.00 in0.0 mm
01:22 AM 64.4°F18.0°C 60.1°F15.6°C 86% Calm Calm -- 29.93 in1013.5 mb - 0.00 in0.0 mm 0.00 in0.0 mm
01:20 AM 66.0°F18.9°C 57.5°F14.2°C 74% 0.6 mph W1.0 kmh W 3.2 mph5.1 kmh 30.22 in1023.4 mb 0.00 in0.0 mm 0.00 in0.0 mm 0.00 in0.0 mm
01:16 AM 64.5°F18.1°C 60.2°F15.7°C 86% Calm Calm -- 29.93 in1013.5 mb - 0.00 in0.0 mm 0.00 in0.0 mm
01:15 AM 66.2°F19.0°C 58.4°F14.7°C 76% 0.6 mph W1.0 kmh W 1.5 mph2.4 kmh 30.22 in1023.4 mb 0.00 in0.0 mm 0.00 in0.0 mm 0.00 in0.0 mm
01:11 AM 64.7°F18.2°C 60.4°F15.8°C 86% Calm Calm -- 29.93 in1013.5 mb - 0.00 in0.0 mm 0.00 in0.0 mm
01:10 AM 66.4°F19.1°C 58.8°F14.9°C 76% 0.2 mph W0.3 kmh W 2.0 mph3.2 kmh 30.21 in1023.0 mb 0.00 in0.0 mm 0.00 in0.0 mm 0.00 in0.0 mm
01:05 AM 64.8°F18.2°C 60.5°F15.8°C 86% Calm Calm -- 29.93 in1013.5 mb - 0.00 in0.0 mm 0.00 in0.0 mm
01:00 AM 64.9°F18.3°C 60.9°F16.1°C 87% Calm Calm -- 29.94 in1013.9 mb - 0.00 in0.0 mm 0.00 in0.0 mm
12:55 AM 66.7°F19.3°C 57.8°F14.3°C 73% 0.9 mph WSW1.4 kmh WSW 1.8 mph2.9 kmh 30.21 in1023.0 mb 0.00 in0.0 mm 0.00 in0.0 mm 0.00 in0.0 mm
12:54 AM 65.0°F18.3°C 61.0°F16.1°C 87% Calm Calm -- 29.94 in1013.9 mb - 0.00 in0.0 mm 0.00 in0.0 mm
12:50 AM 66.7°F19.3°C 57.8°F14.3°C 73% 0.8 mph WSW1.3 kmh WSW 1.8 mph2.9 kmh 30.21 in1023.0 mb 0.00 in0.0 mm 0.00 in0.0 mm 0.00 in0.0 mm
12:48 AM 65.1°F18.4°C 61.2°F16.2°C 87% Calm Calm -- 29.93 in1013.5 mb - 0.00 in0.0 mm 0.00 in0.0 mm
12:45 AM 66.7°F19.3°C 57.8°F14.3°C 73% 1.0 mph WSW1.6 kmh WSW 2.4 mph3.9 kmh 30.21 in1023.0 mb 0.00 in0.0 mm 0.00 in0.0 mm 0.00 in0.0 mm
12:43 AM 65.2°F18.4°C 61.2°F16.2°C 87% Calm Calm -- 29.93 in1013.5 mb - 0.00 in0.0 mm 0.00 in0.0 mm
12:40 AM 66.8°F19.3°C 58.2°F14.6°C 74% 0.5 mph W0.8 kmh W 1.7 mph2.7 kmh 30.21 in1023.0 mb 0.00 in0.0 mm 0.00 in0.0 mm 0.00 in0.0 mm
12:37 AM 65.3°F18.5°C 61.3°F16.3°C 87% Calm Calm -- 29.93 in1013.5 mb - 0.00 in0.0 mm 0.00 in0.0 mm
12:35 AM 66.8°F19.3°C 58.3°F14.6°C 74% 0.3 mph W0.5 kmh W 1.5 mph2.4 kmh 30.21 in1023.0 mb 0.00 in0.0 mm 0.00 in0.0 mm 0.00 in0.0 mm
12:30 AM 66.9°F19.4°C 58.3°F14.6°C 74% 0.4 mph W0.6 kmh W 1.5 mph2.4 kmh 30.21 in1023.0 mb 0.00 in0.0 mm 0.00 in0.0 mm 0.00 in0.0 mm
12:26 AM 65.3°F18.5°C 61.4°F16.3°C 87% Calm Calm -- 29.93 in1013.5 mb - 0.00 in0.0 mm 0.00 in0.0 mm
12:25 AM 66.9°F19.4°C 58.4°F14.7°C 74% 0.2 mph WNW0.3 kmh WNW 1.4 mph2.3 kmh 30.21 in1023.0 mb 0.00 in0.0 mm 0.00 in0.0 mm 0.00 in0.0 mm
12:20 AM 67.1°F19.5°C 58.6°F14.8°C 74% 0.4 mph W0.6 kmh W 1.6 mph2.6 kmh 30.21 in1023.0 mb 0.00 in0.0 mm 0.00 in0.0 mm 0.00 in0.0 mm
12:15 AM 65.5°F18.6°C 61.2°F16.2°C 86% Calm Calm -- 29.93 in1013.5 mb - 0.00 in0.0 mm 0.00 in0.0 mm
12:10 AM 67.1°F19.5°C 58.5°F14.7°C 74% 0.7 mph WSW1.1 kmh WSW 2.3 mph3.7 kmh 30.21 in1023.0 mb 0.00 in0.0 mm 0.00 in0.0 mm 0.00 in0.0 mm
12:05 AM 67.1°F19.5°C 58.4°F14.7°C 74% 0.1 mph W0.2 kmh W 1.1 mph1.8 kmh 30.21 in1023.0 mb 0.00 in0.0 mm 0.00 in0.0 mm 0.00 in0.0 mm
12:03 AM 65.6°F18.7°C 61.3°F16.3°C 86% Calm Calm -- 29.93 in1013.5 mb - 0.00 in0.0 mm 0.00 in0.0 mm
12:00 AM 67.3°F19.6°C 58.3°F14.6°C 73% 0.6 mph WSW1.0 kmh WSW 1.5 mph2.4 kmh 30.21 in1023.0 mb 0.00 in0.0 mm 0.00 in0.0 mm 0.00 in0.0 mm